Fogang, China
Current Conditions -  °F | °C
As of 10:00 PM on Wednesday 22 Oct 2014 (Local Time) from ZGGG Reporting Station
Broken Clouds Broken Clouds  
Wind Chill: 77°   Ceiling: 5000
Heat Index: 79°   Visibility: 6mi
Dew Point: 59°   Wind: 11mph
Humidity: 54%   Direction: 10°N
Pressure: 30.03"   Gusts: NA
Location:  23.87°N, 113.53°E
Report Text: ZGGG 221400Z 01005MPS 9999 BKN050 25/15 Q1017 NOSIG
Loading
Personal Weather Stations






























Interactive Weather Map
Tropical Storm Tracking
New forecast layout! Learn more

10-Day Weather Forecast

Advertisements
Track Severe Weather on mobile